Terminal Aerodrome Forecast
Issued by NWS

Home | Current Version | Previous Version | Text Only | Print | Product List | Glossary On
Versions: 1 2 3 4 5 6 7 8 9 10 11 12 13 14 15
000
FTUS41 KGYX 301725
TAFPSM
TAF
KPSM 301725Z 3018/0118 01007KT P6SM OVC007
     FM010000 VRB05KT 2SM BR OVC005
     FM011300 03012KT 5SM -SHRA BR OVC015=

USA.gov is the U.S. government's official web portal to all federal, state and local government web resources and services.